createdAt,value
2023-06-02T00:02:33.984Z,27.78
2023-06-02T00:05:02.864Z,27.80
2023-06-02T00:07:33.547Z,27.78
2023-06-02T00:10:05.614Z,27.78
2023-06-02T00:12:33.314Z,27.79
2023-06-02T00:15:01.771Z,27.78
2023-06-02T00:17:35.556Z,27.76
2023-06-02T00:20:06.763Z,27.76
2023-06-02T00:22:39.540Z,27.76
2023-06-02T00:25:07.944Z,27.76
2023-06-02T00:27:35.683Z,27.74
2023-06-02T00:30:08.664Z,27.75
2023-06-02T00:32:41.742Z,27.76
2023-06-02T00:35:12.483Z,27.76
2023-06-02T00:37:42.396Z,27.76
2023-06-02T00:40:11.077Z,27.75
2023-06-02T00:42:38.731Z,27.75
2023-06-02T00:45:07.866Z,27.75
2023-06-02T00:47:38.131Z,27.75
2023-06-02T00:50:08.287Z,27.74
2023-06-02T00:52:36.202Z,27.73
2023-06-02T00:55:05.470Z,27.71
2023-06-02T00:57:36.027Z,27.72
2023-06-02T01:00:10.990Z,27.72
2023-06-02T01:02:41.176Z,27.73
2023-06-02T01:05:14.244Z,27.75
2023-06-02T01:07:47.247Z,27.75
2023-06-02T01:10:17.798Z,27.75
2023-06-02T01:12:51.903Z,27.83
2023-06-02T01:15:22.164Z,27.88
2023-06-02T01:17:56.742Z,27.92
2023-06-02T01:20:31.589Z,27.96
2023-06-02T01:23:17.942Z,28.01
2023-06-02T01:25:51.009Z,28.05
2023-06-02T01:28:18.664Z,28.08
2023-06-02T01:30:47.174Z,28.10
2023-06-02T01:33:27.860Z,28.11
2023-06-02T01:36:04.428Z,28.13
2023-06-02T01:38:33.893Z,28.09
2023-06-02T01:41:05.106Z,28.16
2023-06-02T01:43:34.209Z,28.20
2023-06-02T01:46:05.712Z,28.22
2023-06-02T01:48:35.940Z,28.26
2023-06-02T01:51:08.683Z,28.26
2023-06-02T01:53:36.893Z,28.28
2023-06-02T01:56:08.011Z,28.27
2023-06-02T01:58:39.315Z,28.32
2023-06-02T02:01:13.228Z,28.32
2023-06-02T02:03:43.769Z,28.34
2023-06-02T02:06:12.021Z,28.34
2023-06-02T02:08:39.404Z,28.31
2023-06-02T02:11:09.064Z,28.29
2023-06-02T02:13:39.107Z,28.31
2023-06-02T02:16:06.974Z,28.32
2023-06-02T02:18:34.808Z,28.28
2023-06-02T02:21:02.589Z,28.25
2023-06-02T02:23:33.257Z,28.17
2023-06-02T02:26:04.021Z,28.16
2023-06-02T02:28:31.687Z,28.09
2023-06-02T02:31:01.821Z,28.08
2023-06-02T02:33:32.084Z,28.05
2023-06-02T02:36:00.042Z,27.99
2023-06-02T02:38:28.010Z,28.00
2023-06-02T02:40:55.423Z,27.94
2023-06-02T02:43:23.209Z,27.93
2023-06-02T02:45:52.589Z,27.91
2023-06-02T02:48:20.585Z,27.87
2023-06-02T02:50:48.498Z,27.85
2023-06-02T02:53:19.455Z,27.83
2023-06-02T02:55:47.961Z,27.82
2023-06-02T02:58:19.992Z,27.79
2023-06-02T03:00:47.755Z,27.78
2023-06-02T03:03:15.759Z,27.77
2023-06-02T03:05:43.623Z,27.76
2023-06-02T03:08:17.035Z,27.75
2023-06-02T03:10:46.156Z,27.76
2023-06-02T03:13:15.478Z,27.74
2023-06-02T03:15:44.234Z,27.76
2023-06-02T03:18:17.936Z,27.73
2023-06-02T03:20:54.446Z,27.74
2023-06-02T03:23:29.889Z,27.71
2023-06-02T03:26:01.673Z,27.71
2023-06-02T03:28:30.909Z,27.71
2023-06-02T03:31:05.611Z,27.74
2023-06-02T03:33:36.394Z,27.74
2023-06-02T03:36:06.680Z,27.71
2023-06-02T03:38:34.256Z,27.71
2023-06-02T03:41:05.068Z,27.70
2023-06-02T03:43:35.882Z,27.68
2023-06-02T03:46:04.112Z,27.67
2023-06-02T03:48:32.113Z,27.69
2023-06-02T03:51:04.588Z,27.67
2023-06-02T03:53:33.100Z,27.68
2023-06-02T03:56:04.669Z,27.64
2023-06-02T03:58:36.353Z,27.65
2023-06-02T04:01:05.931Z,27.63
2023-06-02T04:03:37.843Z,27.63
2023-06-02T04:06:08.172Z,27.64
2023-06-02T04:08:39.292Z,27.64
2023-06-02T04:11:10.452Z,27.66
2023-06-02T04:13:37.964Z,27.70
2023-06-02T04:16:09.260Z,27.66
2023-06-02T04:18:39.904Z,27.67
2023-06-02T04:21:08.689Z,27.64
2023-06-02T04:23:38.209Z,27.64
2023-06-02T04:26:10.398Z,27.64
2023-06-02T04:28:42.319Z,27.65
2023-06-02T04:31:12.393Z,27.66
2023-06-02T04:33:45.646Z,27.65
2023-06-02T04:36:14.373Z,27.66
2023-06-02T04:38:46.705Z,27.67
2023-06-02T04:41:16.291Z,27.69
2023-06-02T04:43:45.050Z,27.70
2023-06-02T04:46:13.709Z,27.70
2023-06-02T04:48:49.732Z,27.72
2023-06-02T04:51:20.448Z,27.75
2023-06-02T04:53:48.906Z,27.75
2023-06-02T04:56:17.163Z,27.75
2023-06-02T04:58:51.882Z,27.75
2023-06-02T05:01:22.339Z,27.76
2023-06-02T05:03:53.772Z,27.75
2023-06-02T05:06:24.126Z,27.76
2023-06-02T05:08:58.212Z,27.74
2023-06-02T05:11:29.056Z,27.73
2023-06-02T05:13:58.932Z,27.71
2023-06-02T05:16:31.237Z,27.73
2023-06-02T05:18:59.270Z,27.72
2023-06-02T05:21:27.076Z,27.74
2023-06-02T05:23:55.005Z,27.74
2023-06-02T05:26:23.335Z,27.77
2023-06-02T05:28:51.972Z,27.75
2023-06-02T05:31:20.307Z,27.79
2023-06-02T05:33:54.533Z,27.78
2023-06-02T05:36:22.058Z,27.79
2023-06-02T05:38:50.428Z,27.78
2023-06-02T05:41:18.791Z,27.80
2023-06-02T05:43:47.271Z,27.83
2023-06-02T05:46:15.062Z,27.84
2023-06-02T05:48:46.957Z,27.84
2023-06-02T05:51:14.837Z,27.85
2023-06-02T05:53:42.539Z,27.87
2023-06-02T05:56:15.408Z,27.89
2023-06-02T05:58:43.517Z,27.90
2023-06-02T06:01:14.587Z,27.91
2023-06-02T06:03:42.537Z,27.91
2023-06-02T06:06:14.427Z,27.92
2023-06-02T06:08:44.909Z,27.94
2023-06-02T06:11:13.512Z,27.94
2023-06-02T06:13:41.370Z,27.95
2023-06-02T06:16:10.114Z,27.94
2023-06-02T06:18:40.367Z,27.95
2023-06-02T06:21:10.513Z,27.97
2023-06-02T06:23:38.904Z,27.99
2023-06-02T06:26:06.949Z,27.99
2023-06-02T06:28:34.982Z,28.03
2023-06-02T06:31:03.425Z,28.06
2023-06-02T06:33:34.116Z,28.09
2023-06-02T06:36:02.109Z,28.12
2023-06-02T06:38:33.008Z,28.14
2023-06-02T06:41:00.663Z,28.17
2023-06-02T06:43:29.262Z,28.15
2023-06-02T06:46:14.839Z,28.19
2023-06-02T06:48:51.002Z,28.19
2023-06-02T06:51:19.600Z,28.23
2023-06-02T06:53:47.647Z,28.23
2023-06-02T06:56:18.417Z,28.28
2023-06-02T06:58:49.710Z,28.33
2023-06-02T07:01:20.401Z,28.29
2023-06-02T07:03:48.050Z,28.29
2023-06-02T07:06:18.084Z,28.32
2023-06-02T07:08:48.431Z,28.34
2023-06-02T07:11:16.135Z,28.34
2023-06-02T07:13:51.358Z,28.39
2023-06-02T07:16:22.698Z,28.45
2023-06-02T07:18:54.000Z,28.42
2023-06-02T07:21:22.439Z,28.34
2023-06-02T07:23:50.562Z,28.29
2023-06-02T07:26:20.948Z,28.25
2023-06-02T07:28:48.867Z,28.23
2023-06-02T07:31:18.770Z,28.22
2023-06-02T07:33:50.148Z,28.21
2023-06-02T07:36:27.162Z,28.21
2023-06-02T07:38:58.883Z,28.21
2023-06-02T07:41:29.494Z,28.20
2023-06-02T07:43:59.074Z,28.18
2023-06-02T07:46:29.951Z,28.18
2023-06-02T07:48:59.339Z,28.20
2023-06-02T07:51:36.448Z,28.20
2023-06-02T07:54:04.811Z,28.14
2023-06-02T07:56:37.689Z,27.89
2023-06-02T07:59:06.478Z,27.72
2023-06-02T08:01:34.474Z,27.63
2023-06-02T08:04:07.161Z,27.42
2023-06-02T08:06:38.024Z,27.33
2023-06-02T08:09:06.565Z,27.29
2023-06-02T08:11:37.980Z,27.24
2023-06-02T08:14:11.223Z,27.28
2023-06-02T08:16:56.986Z,27.29
2023-06-02T08:19:27.310Z,27.33
2023-06-02T08:21:59.088Z,27.25
2023-06-02T08:24:36.125Z,27.24
2023-06-02T08:27:05.261Z,27.34
2023-06-02T08:29:34.048Z,27.28
2023-06-02T08:32:04.677Z,27.24
2023-06-02T08:34:35.009Z,27.18
2023-06-02T08:37:16.800Z,27.19
2023-06-02T08:39:53.738Z,27.13
2023-06-02T08:42:25.167Z,27.08
2023-06-02T08:44:56.465Z,27.12
2023-06-02T08:47:26.018Z,26.99
2023-06-02T08:49:54.186Z,26.96
2023-06-02T08:52:27.254Z,26.94
2023-06-02T08:54:58.179Z,26.91
2023-06-02T08:57:28.928Z,26.90
2023-06-02T08:59:59.771Z,26.92
2023-06-02T09:02:28.018Z,26.91
2023-06-02T09:05:00.553Z,26.87
2023-06-02T09:07:31.812Z,26.97
2023-06-02T09:10:05.200Z,26.98
2023-06-02T09:12:50.069Z,26.93
2023-06-02T09:15:21.011Z,26.85
2023-06-02T09:17:51.294Z,26.89
2023-06-02T09:20:31.746Z,26.94
2023-06-02T09:23:00.240Z,26.94
2023-06-02T09:25:32.748Z,26.93
2023-06-02T09:28:02.875Z,26.85
2023-06-02T09:30:30.945Z,26.84
2023-06-02T09:33:01.531Z,26.81
2023-06-02T09:35:42.809Z,26.83
2023-06-02T09:38:16.401Z,26.81
2023-06-02T09:40:46.916Z,26.81
2023-06-02T09:43:32.685Z,26.79
2023-06-02T09:46:02.607Z,26.76
2023-06-02T09:48:39.229Z,26.77
2023-06-02T09:51:27.040Z,26.78
2023-06-02T09:53:59.754Z,26.75
2023-06-02T09:56:31.302Z,26.77
2023-06-02T09:58:59.820Z,26.75
2023-06-02T10:01:32.780Z,26.76
2023-06-02T10:04:02.172Z,26.77
2023-06-02T10:06:39.395Z,26.77
2023-06-02T10:09:40.336Z,26.83
2023-06-02T10:12:29.419Z,26.76
2023-06-02T10:15:38.887Z,26.76
2023-06-02T10:18:39.432Z,26.80
2023-06-02T10:21:17.244Z,26.77
2023-06-02T10:24:18.985Z,26.74
2023-06-02T10:26:49.564Z,26.75
2023-06-02T10:29:18.372Z,26.76
2023-06-02T10:31:49.402Z,26.83
2023-06-02T10:34:36.971Z,27.03
2023-06-02T10:37:11.710Z,27.28
2023-06-02T10:39:47.684Z,27.49
2023-06-02T10:42:17.221Z,27.57
2023-06-02T10:44:48.536Z,27.67
2023-06-02T10:47:19.172Z,27.76
2023-06-02T10:50:02.266Z,27.83
2023-06-02T10:52:33.935Z,27.85
2023-06-02T10:55:17.483Z,27.86
2023-06-02T10:57:54.950Z,27.93
2023-06-02T11:00:40.463Z,27.99
2023-06-02T11:03:17.737Z,28.02
2023-06-02T11:05:47.339Z,28.03
2023-06-02T11:08:24.385Z,28.05
2023-06-02T11:10:57.626Z,28.08
2023-06-02T11:13:29.348Z,28.08
2023-06-02T11:16:07.825Z,28.12
2023-06-02T11:18:35.579Z,28.14
2023-06-02T11:21:16.469Z,28.13
2023-06-02T11:23:44.717Z,28.16
2023-06-02T11:26:16.408Z,28.18
2023-06-02T11:28:49.191Z,28.20
2023-06-02T11:31:19.479Z,28.19
2023-06-02T11:33:53.074Z,28.21
2023-06-02T11:36:27.792Z,28.19
2023-06-02T11:39:12.320Z,28.21
2023-06-02T11:41:56.599Z,28.18
2023-06-02T11:44:27.932Z,28.21
2023-06-02T11:47:01.532Z,28.22
2023-06-02T11:49:39.149Z,28.23
2023-06-02T11:52:12.127Z,28.23
2023-06-02T11:55:12.974Z,28.24
2023-06-02T11:57:49.998Z,28.28
2023-06-02T12:00:21.021Z,28.26
2023-06-02T12:02:58.701Z,28.27
2023-06-02T12:05:39.055Z,28.28
2023-06-02T12:08:21.802Z,28.28
2023-06-02T12:10:51.172Z,28.29
2023-06-02T12:13:33.126Z,28.29
2023-06-02T12:16:22.509Z,28.30
2023-06-02T12:18:50.612Z,28.30
2023-06-02T12:21:29.440Z,28.30
2023-06-02T12:23:59.590Z,28.33
2023-06-02T12:26:43.468Z,28.33
2023-06-02T12:29:14.769Z,28.33
2023-06-02T12:31:43.515Z,28.34
2023-06-02T12:34:17.839Z,28.36
2023-06-02T12:36:49.072Z,28.37
2023-06-02T12:39:22.480Z,28.40
2023-06-02T12:41:51.056Z,28.38
2023-06-02T12:44:27.635Z,28.42
2023-06-02T12:46:59.434Z,28.39
2023-06-02T12:49:30.897Z,28.42
2023-06-02T12:51:58.774Z,28.41
2023-06-02T12:54:26.482Z,28.46
2023-06-02T12:56:56.761Z,28.43
2023-06-02T12:59:27.250Z,28.43
2023-06-02T13:02:00.794Z,28.43
2023-06-02T13:04:29.038Z,28.46
2023-06-02T13:06:59.622Z,28.48
2023-06-02T13:09:27.270Z,28.46
2023-06-02T13:12:01.896Z,28.44
2023-06-02T13:14:33.590Z,28.41
2023-06-02T13:17:03.341Z,28.43
2023-06-02T13:19:34.940Z,28.45
2023-06-02T13:22:04.223Z,28.42
2023-06-02T13:24:32.877Z,28.44
2023-06-02T13:27:04.067Z,28.44
2023-06-02T13:29:35.052Z,28.44
2023-06-02T13:32:02.857Z,28.44
2023-06-02T13:34:37.444Z,28.42
2023-06-02T13:37:08.277Z,28.43
2023-06-02T13:39:39.133Z,28.41
2023-06-02T13:42:09.270Z,28.41
2023-06-02T13:44:37.176Z,28.38
2023-06-02T13:47:08.134Z,28.37
2023-06-02T13:49:41.869Z,28.37
2023-06-02T13:52:11.821Z,28.39
2023-06-02T13:54:43.227Z,28.35
2023-06-02T13:57:11.214Z,28.37
2023-06-02T13:59:41.587Z,28.36
2023-06-02T14:02:09.880Z,28.36
2023-06-02T14:04:39.232Z,28.37
2023-06-02T14:07:07.886Z,28.40
2023-06-02T14:09:35.961Z,28.41
2023-06-02T14:12:03.817Z,28.41
2023-06-02T14:14:32.623Z,28.40
2023-06-02T14:17:00.665Z,28.40
2023-06-02T14:19:29.030Z,28.43
2023-06-02T14:22:00.222Z,28.41
2023-06-02T14:24:29.024Z,28.42
2023-06-02T14:26:59.015Z,28.42
2023-06-02T14:29:26.754Z,28.43
2023-06-02T14:31:54.558Z,28.45
2023-06-02T14:34:22.886Z,28.45
2023-06-02T14:36:53.764Z,28.43
2023-06-02T14:39:21.418Z,28.48
2023-06-02T14:41:56.142Z,28.47
2023-06-02T14:44:39.101Z,28.49
2023-06-02T14:47:11.979Z,28.52
2023-06-02T14:49:39.905Z,28.53
2023-06-02T14:52:09.287Z,28.59
2023-06-02T14:54:39.631Z,28.56
2023-06-02T14:57:08.127Z,28.58
2023-06-02T14:59:36.058Z,28.63
2023-06-02T15:02:07.625Z,28.65
2023-06-02T15:04:35.454Z,28.65
2023-06-02T15:07:05.732Z,28.65
2023-06-02T15:09:33.811Z,28.64
2023-06-02T15:12:02.629Z,28.65
2023-06-02T15:14:32.801Z,28.66
2023-06-02T15:17:01.101Z,28.65
2023-06-02T15:19:31.529Z,28.62
2023-06-02T15:21:58.885Z,28.59
2023-06-02T15:24:26.592Z,28.58
2023-06-02T15:26:53.929Z,28.59
2023-06-02T15:29:26.610Z,28.60
2023-06-02T15:31:58.612Z,28.59
2023-06-02T15:34:34.700Z,28.59
2023-06-02T15:37:05.094Z,28.58
2023-06-02T15:39:38.655Z,28.63
2023-06-02T15:42:06.993Z,28.64
2023-06-02T15:44:34.424Z,28.66
2023-06-02T15:47:05.200Z,28.68
2023-06-02T15:49:33.664Z,28.73
2023-06-02T15:52:03.899Z,28.72
2023-06-02T15:54:31.882Z,28.74
2023-06-02T15:56:59.482Z,28.74
2023-06-02T15:59:29.103Z,28.76
2023-06-02T16:02:00.137Z,28.76
2023-06-02T16:04:30.497Z,28.77
2023-06-02T16:06:57.875Z,28.80
2023-06-02T16:09:25.264Z,28.79
2023-06-02T16:11:52.720Z,28.78
2023-06-02T16:14:20.120Z,28.80
2023-06-02T16:16:49.481Z,28.82
2023-06-02T16:19:21.338Z,28.82
2023-06-02T16:21:49.429Z,28.80
2023-06-02T16:24:17.219Z,28.82
2023-06-02T16:26:47.012Z,28.82
2023-06-02T16:29:16.631Z,28.84
2023-06-02T16:31:44.159Z,28.82
2023-06-02T16:34:17.524Z,28.84
2023-06-02T16:36:49.195Z,28.84
2023-06-02T16:39:17.425Z,28.86
2023-06-02T16:41:44.782Z,28.87
2023-06-02T16:44:12.144Z,28.87
2023-06-02T16:46:41.257Z,28.85
2023-06-02T16:49:12.208Z,28.86
2023-06-02T16:51:39.588Z,28.86
2023-06-02T16:54:06.976Z,28.87
2023-06-02T16:56:36.779Z,28.89
2023-06-02T16:59:04.270Z,28.88
2023-06-02T17:01:34.609Z,28.87
2023-06-02T17:04:07.844Z,28.90
2023-06-02T17:06:35.123Z,28.90
2023-06-02T17:09:02.493Z,28.90
2023-06-02T17:11:31.073Z,28.91
2023-06-02T17:14:05.205Z,28.91
2023-06-02T17:16:33.210Z,28.90
2023-06-02T17:19:05.864Z,28.88
2023-06-02T17:21:34.646Z,28.87
2023-06-02T17:24:02.225Z,28.87
2023-06-02T17:26:32.713Z,28.87
2023-06-02T17:29:05.342Z,28.87
2023-06-02T17:31:32.883Z,28.86
2023-06-02T17:34:03.237Z,28.87
2023-06-02T17:36:35.836Z,28.88
2023-06-02T17:39:04.350Z,28.88
2023-06-02T17:41:32.312Z,28.87
2023-06-02T17:44:00.206Z,28.87
2023-06-02T17:46:27.880Z,28.88
2023-06-02T17:48:55.372Z,28.87
2023-06-02T17:51:23.845Z,28.86
2023-06-02T17:53:51.320Z,28.87
2023-06-02T17:56:22.439Z,28.88
2023-06-02T17:58:54.263Z,28.88
2023-06-02T18:01:22.629Z,28.87
2023-06-02T18:03:50.173Z,28.85
2023-06-02T18:06:17.817Z,28.84
2023-06-02T18:08:47.923Z,28.84
2023-06-02T18:11:15.549Z,28.85
2023-06-02T18:13:43.447Z,28.83
2023-06-02T18:16:13.944Z,28.84
2023-06-02T18:18:41.509Z,28.82
2023-06-02T18:21:11.811Z,28.83
2023-06-02T18:23:42.339Z,28.83
2023-06-02T18:26:09.752Z,28.83
2023-06-02T18:28:37.317Z,28.82
2023-06-02T18:31:07.701Z,28.80
2023-06-02T18:33:35.320Z,28.81
2023-06-02T18:36:05.888Z,28.81
2023-06-02T18:38:36.056Z,28.82
2023-06-02T18:41:03.743Z,28.82
2023-06-02T18:43:31.381Z,28.82
2023-06-02T18:45:59.110Z,28.79
2023-06-02T18:48:29.505Z,28.80
2023-06-02T18:50:57.044Z,28.79
2023-06-02T18:53:24.376Z,28.76
2023-06-02T18:55:54.297Z,28.77
2023-06-02T18:58:28.580Z,28.75
2023-06-02T19:00:56.700Z,28.74
2023-06-02T19:03:24.247Z,28.76
2023-06-02T19:05:51.850Z,28.76
2023-06-02T19:08:20.053Z,28.74
2023-06-02T19:10:50.715Z,28.75
2023-06-02T19:13:18.256Z,28.76
2023-06-02T19:15:45.912Z,28.73
2023-06-02T19:18:13.397Z,28.74
2023-06-02T19:20:41.042Z,28.74
2023-06-02T19:23:11.517Z,28.71
2023-06-02T19:25:41.425Z,28.71
2023-06-02T19:28:09.064Z,28.71
2023-06-02T19:30:36.557Z,28.71
2023-06-02T19:33:04.932Z,28.72
2023-06-02T19:35:34.784Z,28.72
2023-06-02T19:38:05.450Z,28.74
2023-06-02T19:40:35.878Z,28.72
2023-06-02T19:43:06.044Z,28.72
2023-06-02T19:45:33.564Z,28.73
2023-06-02T19:48:03.938Z,28.71
2023-06-02T19:50:31.497Z,28.72
2023-06-02T19:52:58.938Z,28.73
2023-06-02T19:55:27.187Z,28.70
2023-06-02T19:57:55.034Z,28.72
2023-06-02T20:00:22.535Z,28.72
2023-06-02T20:02:50.739Z,28.70
2023-06-02T20:05:18.769Z,28.72
2023-06-02T20:07:46.386Z,28.73
2023-06-02T20:10:13.871Z,28.71
2023-06-02T20:12:43.842Z,28.71
2023-06-02T20:15:11.208Z,28.71
2023-06-02T20:17:38.716Z,28.68
2023-06-02T20:20:07.050Z,28.68
2023-06-02T20:22:36.822Z,28.67
2023-06-02T20:25:04.994Z,28.64
2023-06-02T20:27:32.460Z,28.63
2023-06-02T20:29:59.799Z,28.65
2023-06-02T20:32:32.499Z,28.66
2023-06-02T20:35:03.120Z,28.66
2023-06-02T20:37:30.962Z,28.67
2023-06-02T20:39:58.329Z,28.65
2023-06-02T20:42:30.892Z,28.66
2023-06-02T20:44:58.228Z,28.67
2023-06-02T20:47:29.352Z,28.70
2023-06-02T20:49:58.438Z,28.70
2023-06-02T20:52:28.709Z,28.68
2023-06-02T20:54:58.435Z,28.69
2023-06-02T20:57:25.958Z,28.68
2023-06-02T20:59:56.115Z,28.66
2023-06-02T21:02:27.926Z,28.66
2023-06-02T21:04:55.461Z,28.66
2023-06-02T21:07:30.774Z,28.69
2023-06-02T21:09:58.218Z,28.65
2023-06-02T21:12:27.964Z,28.63
2023-06-02T21:14:55.459Z,28.64
2023-06-02T21:17:22.766Z,28.65
2023-06-02T21:19:50.756Z,28.64
2023-06-02T21:22:18.210Z,28.61
2023-06-02T21:24:45.633Z,28.61
2023-06-02T21:27:16.144Z,28.61
2023-06-02T21:29:53.187Z,28.61
2023-06-02T21:32:31.456Z,28.63
2023-06-02T21:34:59.011Z,28.64
2023-06-02T21:37:26.328Z,28.63
2023-06-02T21:39:54.584Z,28.63
2023-06-02T21:42:21.872Z,28.64
2023-06-02T21:44:49.217Z,28.62
2023-06-02T21:47:16.778Z,28.63
2023-06-02T21:49:44.101Z,28.63
2023-06-02T21:52:11.668Z,28.61
2023-06-02T21:54:44.205Z,28.61
2023-06-02T21:57:12.439Z,28.61
2023-06-02T21:59:40.732Z,28.62
2023-06-02T22:02:10.580Z,28.64
2023-06-02T22:04:38.093Z,28.63
2023-06-02T22:07:08.658Z,28.64
2023-06-02T22:09:38.265Z,28.63
2023-06-02T22:12:09.034Z,28.63
2023-06-02T22:14:39.419Z,28.63
2023-06-02T22:17:09.977Z,28.63
2023-06-02T22:19:37.774Z,28.61
2023-06-02T22:22:06.128Z,28.59
2023-06-02T22:24:33.953Z,28.59
2023-06-02T22:27:04.476Z,28.59
2023-06-02T22:29:32.642Z,28.59
2023-06-02T22:32:02.748Z,28.59
2023-06-02T22:34:30.539Z,28.59
2023-06-02T22:37:03.417Z,28.58
2023-06-02T22:39:30.902Z,28.57
2023-06-02T22:41:58.262Z,28.55
2023-06-02T22:44:28.566Z,28.56
2023-06-02T22:47:00.956Z,28.57
2023-06-02T22:49:31.193Z,28.58
2023-06-02T22:51:58.838Z,28.56
2023-06-02T22:54:26.706Z,28.55
2023-06-02T22:56:54.043Z,28.55
2023-06-02T22:59:21.825Z,28.53
2023-06-02T23:01:49.297Z,28.52
2023-06-02T23:04:19.128Z,28.53
2023-06-02T23:06:49.003Z,28.53
2023-06-02T23:09:19.036Z,28.54
2023-06-02T23:11:46.367Z,28.53
2023-06-02T23:14:14.020Z,28.54
2023-06-02T23:16:44.878Z,28.54
2023-06-02T23:19:14.754Z,28.54
2023-06-02T23:21:46.093Z,28.55
2023-06-02T23:24:13.552Z,28.54
2023-06-02T23:26:44.323Z,28.56
2023-06-02T23:29:11.726Z,28.52
2023-06-02T23:31:41.356Z,28.54
2023-06-02T23:34:08.872Z,28.51
2023-06-02T23:36:39.034Z,28.51
2023-06-02T23:39:09.674Z,28.51
2023-06-02T23:41:40.098Z,28.50
2023-06-02T23:44:07.614Z,28.51
2023-06-02T23:46:35.104Z,28.50
2023-06-02T23:49:07.925Z,28.50
2023-06-02T23:51:35.477Z,28.49
2023-06-02T23:54:08.847Z,28.49
2023-06-02T23:56:36.482Z,28.49
2023-06-02T23:59:06.444Z,28.48
